Nba Van Gogh — 3FRY9 — position and weather

sailwx.info

Track history (hours):
 
Tides and Currents Weather Stations Pressure Air Temp Water Temp Dewpoint Dewpoint Depression Visibility Wind Speed Wind Dir Waves Ship Positions

Nba Van Gogh

Last reported at 2017-Nov-23 04:19 UTC. Time now 2017-Nov-23 11:12 UTC.
Position N 36°51' W 075°51'.

Length 235 m; draft 13.8 m.

Type: Cargo ship. MMSI: 357110000.

Date/timePositionNaut miles runAvg speedWind from/ knotsBaromVisibWave heightAir tempDewpointWater temp
2017-Nov-23 04:19N 36°51' W 075°51'3 9.4
2017-Nov-23 04:00N 36°53' W 075°53'5 9.2
2017-Nov-23 03:30N 36°56' W 075°58'5 9.8
2017-Nov-23 03:00N 36°58' W 076°04'510.1
2017-Nov-23 02:29N 36°59' W 076°10'5 9.7
2017-Nov-23 01:56N 37°00' W 076°17'4 8.8
2017-Nov-23 01:30N 36°58' W 076°20'4 7.8
2017-Nov-23 01:00N 36°54' W 076°20'1 2.3
2017-Nov-23 00:30N 36°53' W 076°20'0 0.0
2017-Nov-22 23:59N 36°53' W 076°20'0 0.0
2017-Nov-22 23:29N 36°53' W 076°20'0 0.0
2017-Nov-22 22:59N 36°53' W 076°20'0 0.0
2017-Nov-22 22:29N 36°53' W 076°20'0 0.0
2017-Nov-22 21:59N 36°53' W 076°20'0 0.0
2017-Nov-22 21:29N 36°53' W 076°20'0 0.0
2017-Nov-22 20:59N 36°53' W 076°20'0 0.0
2017-Nov-22 20:29N 36°53' W 076°20'0 0.0
2017-Nov-22 19:59N 36°53' W 076°20'0 0.0
2017-Nov-22 19:29N 36°53' W 076°20'  
2017-Nov-16 17:21N 37°14' W 076°06'  
Track history (hours):
 
Tides and Currents Weather Stations Pressure Air Temp Water Temp Dewpoint Dewpoint Depression Visibility Wind Speed Wind Dir Waves Ship Positions

Nba Van Gogh

Last reported at 2017-Nov-23 04:19 UTC. Time now 2017-Nov-23 11:12 UTC.
Position N 36°51' W 075°51'.

Length 235 m; draft 13.8 m.

Type: Cargo ship. MMSI: 357110000.

Date/timePositionNaut miles runAvg speedWind from/ knotsBaromVisibWave heightAir tempDewpointWater temp
2017-Nov-23 04:19N 36°51' W 075°51'3 9.4
2017-Nov-23 04:00N 36°53' W 075°53'5 9.2
2017-Nov-23 03:30N 36°56' W 075°58'5 9.8
2017-Nov-23 03:00N 36°58' W 076°04'510.1
2017-Nov-23 02:29N 36°59' W 076°10'5 9.7
2017-Nov-23 01:56N 37°00' W 076°17'4 8.8
2017-Nov-23 01:30N 36°58' W 076°20'4 7.8
2017-Nov-23 01:00N 36°54' W 076°20'1 2.3
2017-Nov-23 00:30N 36°53' W 076°20'0 0.0
2017-Nov-22 23:59N 36°53' W 076°20'0 0.0
2017-Nov-22 23:29N 36°53' W 076°20'0 0.0
2017-Nov-22 22:59N 36°53' W 076°20'0 0.0
2017-Nov-22 22:29N 36°53' W 076°20'0 0.0
2017-Nov-22 21:59N 36°53' W 076°20'0 0.0
2017-Nov-22 21:29N 36°53' W 076°20'0 0.0
2017-Nov-22 20:59N 36°53' W 076°20'0 0.0
2017-Nov-22 20:29N 36°53' W 076°20'0 0.0
2017-Nov-22 19:59N 36°53' W 076°20'0 0.0
2017-Nov-22 19:29N 36°53' W 076°20'  
2017-Nov-16 17:21N 37°14' W 076°06'  

Dump ship's entire track history